createdAt,value
2022-10-19T00:01:56.999Z,66.43
2022-10-19T00:04:27.160Z,66.67
2022-10-19T00:06:57.197Z,66.67
2022-10-19T00:09:27.637Z,66.74
2022-10-19T00:11:57.649Z,67.26
2022-10-19T00:14:30.330Z,67.51
2022-10-19T00:17:00.354Z,67.61
2022-10-19T00:19:31.592Z,67.60
2022-10-19T00:22:01.586Z,67.78
2022-10-19T00:24:31.595Z,67.93
2022-10-19T00:27:01.716Z,67.92
2022-10-19T00:29:34.294Z,68.48
2022-10-19T00:32:04.289Z,68.05
2022-10-19T00:34:34.349Z,68.26
2022-10-19T00:37:04.491Z,68.72
2022-10-19T00:39:34.444Z,68.23
2022-10-19T00:42:04.547Z,68.47
2022-10-19T00:45:06.327Z,69.08
2022-10-19T00:47:37.346Z,69.10
2022-10-19T00:50:08.337Z,69.21
2022-10-19T00:52:38.507Z,69.47
2022-10-19T00:55:11.582Z,69.58
2022-10-19T00:57:43.334Z,70.08
2022-10-19T01:00:16.819Z,70.13
2022-10-19T01:02:46.850Z,69.82
2022-10-19T01:05:17.995Z,70.20
2022-10-19T01:07:48.407Z,70.37
2022-10-19T01:10:18.851Z,70.07
2022-10-19T01:13:06.370Z,70.38
2022-10-19T01:15:46.327Z,70.27
2022-10-19T01:18:24.126Z,70.10
2022-10-19T01:21:20.473Z,70.11
2022-10-19T01:24:29.069Z,70.09
2022-10-19T01:27:30.635Z,69.77
2022-10-19T01:30:09.129Z,69.13
2022-10-19T01:32:52.979Z,68.77
2022-10-19T01:35:30.729Z,69.42
2022-10-19T01:38:10.660Z,69.18
2022-10-19T01:40:49.633Z,68.54
2022-10-19T01:43:27.201Z,68.48
2022-10-19T01:46:07.455Z,68.48
2022-10-19T01:48:41.762Z,69.04
2022-10-19T01:51:16.029Z,68.86
2022-10-19T01:53:50.361Z,68.80
2022-10-19T01:56:23.405Z,68.95
2022-10-19T01:58:55.671Z,69.83
2022-10-19T02:01:33.469Z,70.83
2022-10-19T02:04:04.897Z,70.36
2022-10-19T02:06:34.928Z,69.82
2022-10-19T02:09:05.001Z,68.87
2022-10-19T02:11:36.060Z,68.83
2022-10-19T02:14:10.820Z,68.57
2022-10-19T02:16:47.957Z,68.46
2022-10-19T02:19:19.502Z,68.26
2022-10-19T02:21:50.133Z,68.57
2022-10-19T02:24:20.172Z,69.11
2022-10-19T02:26:50.364Z,69.22
2022-10-19T02:29:20.455Z,68.82
2022-10-19T02:31:53.137Z,69.07
2022-10-19T02:34:23.293Z,69.52
2022-10-19T02:36:53.366Z,69.64
2022-10-19T02:39:24.047Z,69.67
2022-10-19T02:42:02.848Z,69.62
2022-10-19T02:44:36.253Z,69.89
2022-10-19T02:47:13.573Z,70.07
2022-10-19T02:49:45.760Z,69.45
2022-10-19T02:52:17.109Z,68.86
2022-10-19T02:54:50.840Z,68.40
2022-10-19T02:57:23.324Z,68.38
2022-10-19T02:59:54.085Z,67.88
2022-10-19T03:02:27.415Z,68.14
2022-10-19T03:04:57.376Z,68.19
2022-10-19T03:07:27.489Z,67.98
2022-10-19T03:09:57.508Z,68.15
2022-10-19T03:12:27.600Z,68.08
2022-10-19T03:14:57.673Z,68.14
2022-10-19T03:17:30.275Z,67.45
2022-10-19T03:20:02.336Z,67.22
2022-10-19T03:22:32.489Z,67.14
2022-10-19T03:25:02.519Z,67.66
2022-10-19T03:27:32.724Z,67.32
2022-10-19T03:30:11.086Z,67.71
2022-10-19T03:32:43.723Z,66.77
2022-10-19T03:35:13.904Z,66.92
2022-10-19T03:37:43.870Z,66.31
2022-10-19T03:40:15.173Z,66.73
2022-10-19T03:42:45.272Z,64.88
2022-10-19T03:45:15.200Z,65.55
2022-10-19T03:47:52.204Z,65.48
2022-10-19T03:50:24.675Z,65.55
2022-10-19T03:52:54.801Z,66.18
2022-10-19T03:55:25.005Z,65.35
2022-10-19T03:57:55.228Z,64.97
2022-10-19T04:00:25.212Z,65.06
2022-10-19T04:02:57.852Z,64.93
2022-10-19T04:05:27.767Z,64.50
2022-10-19T04:07:57.740Z,64.71
2022-10-19T04:10:28.068Z,64.29
2022-10-19T04:12:58.080Z,64.72
2022-10-19T04:15:28.164Z,65.00
2022-10-19T04:18:00.724Z,64.98
2022-10-19T04:20:31.790Z,65.08
2022-10-19T04:23:02.640Z,65.47
2022-10-19T04:25:32.712Z,66.37
2022-10-19T04:28:02.734Z,66.38
2022-10-19T04:30:34.550Z,66.58
2022-10-19T04:33:07.259Z,66.63
2022-10-19T04:35:37.346Z,66.22
2022-10-19T04:38:07.402Z,66.01
2022-10-19T04:40:38.781Z,66.15
2022-10-19T04:43:08.780Z,65.20
2022-10-19T04:45:39.154Z,64.93
2022-10-19T04:48:14.639Z,64.52
2022-10-19T04:50:45.283Z,64.32
2022-10-19T04:53:15.326Z,64.49
2022-10-19T04:55:45.441Z,64.48
2022-10-19T04:58:15.454Z,64.57
2022-10-19T05:00:46.006Z,64.98
2022-10-19T05:03:19.086Z,64.50
2022-10-19T05:05:49.120Z,64.49
2022-10-19T05:08:19.220Z,64.27
2022-10-19T05:10:49.153Z,64.62
2022-10-19T05:13:19.189Z,64.71
2022-10-19T05:15:58.627Z,64.49
2022-10-19T05:18:31.881Z,64.66
2022-10-19T05:21:06.857Z,65.02
2022-10-19T05:23:37.771Z,65.00
2022-10-19T05:26:10.605Z,65.00
2022-10-19T05:28:41.036Z,65.24
2022-10-19T05:31:13.573Z,65.34
2022-10-19T05:33:47.083Z,64.79
2022-10-19T05:36:19.670Z,64.85
2022-10-19T05:38:54.965Z,65.50
2022-10-19T05:41:25.864Z,66.19
2022-10-19T05:43:57.235Z,65.63
2022-10-19T05:46:28.269Z,65.57
2022-10-19T05:49:02.192Z,65.51
2022-10-19T05:51:35.268Z,66.22
2022-10-19T05:54:05.243Z,66.41
2022-10-19T05:56:35.836Z,68.50
2022-10-19T05:59:08.341Z,66.69
2022-10-19T06:01:39.255Z,65.99
2022-10-19T06:04:14.231Z,67.08
2022-10-19T06:06:46.009Z,66.97
2022-10-19T06:09:16.105Z,68.63
2022-10-19T06:11:46.664Z,68.18
2022-10-19T06:14:18.485Z,67.13
2022-10-19T06:16:48.668Z,67.15
2022-10-19T06:19:21.213Z,67.55
2022-10-19T06:21:51.228Z,66.76
2022-10-19T06:24:21.133Z,66.27
2022-10-19T06:26:51.122Z,65.89
2022-10-19T06:29:21.149Z,65.23
2022-10-19T06:31:52.212Z,65.42
2022-10-19T06:34:25.118Z,64.58
2022-10-19T06:36:55.178Z,64.04
2022-10-19T06:39:25.182Z,63.88
2022-10-19T06:41:55.146Z,63.46
2022-10-19T06:44:25.301Z,63.44
2022-10-19T06:46:55.362Z,63.11
2022-10-19T06:49:28.067Z,62.70
2022-10-19T06:51:58.048Z,62.56
2022-10-19T06:54:28.389Z,61.49
2022-10-19T06:56:58.358Z,61.29
2022-10-19T06:59:28.725Z,59.84
2022-10-19T07:01:58.921Z,59.47
2022-10-19T07:04:32.293Z,58.61
2022-10-19T07:07:02.300Z,58.63
2022-10-19T07:09:33.726Z,58.03
2022-10-19T07:12:03.721Z,58.18
2022-10-19T07:14:38.797Z,57.52
2022-10-19T07:17:08.854Z,55.60
2022-10-19T07:19:41.599Z,53.98
2022-10-19T07:22:15.541Z,53.46
2022-10-19T07:24:48.795Z,52.86
2022-10-19T07:27:18.908Z,50.84
2022-10-19T07:29:49.344Z,50.16
2022-10-19T07:32:19.414Z,48.59
2022-10-19T07:34:52.058Z,48.12
2022-10-19T07:37:22.022Z,46.63
2022-10-19T07:39:55.520Z,46.21
2022-10-19T07:42:25.691Z,45.36
2022-10-19T07:44:55.665Z,44.26
2022-10-19T07:47:25.750Z,43.49
2022-10-19T07:49:58.567Z,45.39
2022-10-19T07:52:30.776Z,46.72
2022-10-19T07:55:03.126Z,47.47
2022-10-19T07:57:33.287Z,47.33
2022-10-19T08:00:04.146Z,47.20
2022-10-19T08:02:45.645Z,47.41
2022-10-19T08:05:26.939Z,47.78
2022-10-19T08:07:57.191Z,47.69
2022-10-19T08:10:34.157Z,47.58
2022-10-19T08:13:04.110Z,47.10
2022-10-19T08:15:34.065Z,47.06
2022-10-19T08:18:04.050Z,46.03
2022-10-19T08:20:37.043Z,46.13
2022-10-19T08:23:07.097Z,47.01
2022-10-19T08:25:37.365Z,47.43
2022-10-19T08:28:07.400Z,47.20
2022-10-19T08:30:38.028Z,46.49
2022-10-19T08:33:08.530Z,46.66
2022-10-19T08:35:41.231Z,46.21
2022-10-19T08:38:11.550Z,47.41
2022-10-19T08:40:42.561Z,46.96
2022-10-19T08:43:21.319Z,48.47
2022-10-19T08:46:01.350Z,48.42
2022-10-19T08:48:33.299Z,48.61
2022-10-19T08:51:09.421Z,48.33
2022-10-19T08:53:47.288Z,48.81
2022-10-19T08:56:50.023Z,49.84
2022-10-19T08:59:24.620Z,49.42
2022-10-19T09:01:58.211Z,49.87
2022-10-19T09:04:33.408Z,49.04
2022-10-19T09:07:25.453Z,48.59
2022-10-19T09:10:00.056Z,48.61
2022-10-19T09:12:45.027Z,48.42
2022-10-19T09:15:17.766Z,48.11
2022-10-19T09:17:48.043Z,47.09
2022-10-19T09:20:21.697Z,47.15
2022-10-19T09:23:00.078Z,46.09
2022-10-19T09:25:32.570Z,44.87
2022-10-19T09:28:13.367Z,44.05
2022-10-19T09:30:45.671Z,43.53
2022-10-19T09:33:22.077Z,42.72
2022-10-19T09:35:53.428Z,42.31
2022-10-19T09:38:29.779Z,42.79
2022-10-19T09:41:00.695Z,43.58
2022-10-19T09:43:30.899Z,43.75
2022-10-19T09:46:18.549Z,45.29
2022-10-19T09:48:53.610Z,44.81
2022-10-19T09:51:23.905Z,44.62
2022-10-19T09:53:59.928Z,44.06
2022-10-19T09:56:30.959Z,45.47
2022-10-19T09:59:04.716Z,45.20
2022-10-19T10:01:41.952Z,46.09
2022-10-19T10:04:18.173Z,45.61
2022-10-19T10:06:50.914Z,45.41
2022-10-19T10:09:28.501Z,45.27
2022-10-19T10:12:01.466Z,44.29
2022-10-19T10:14:35.179Z,43.76
2022-10-19T10:17:05.837Z,43.85
2022-10-19T10:19:38.238Z,43.85
2022-10-19T10:22:08.264Z,43.88
2022-10-19T10:24:54.938Z,43.90
2022-10-19T10:27:32.542Z,43.74
2022-10-19T10:30:10.103Z,44.13
2022-10-19T10:32:44.419Z,44.55
2022-10-19T10:35:21.545Z,45.09
2022-10-19T10:37:52.842Z,45.12
2022-10-19T10:40:32.378Z,44.22
2022-10-19T10:43:07.653Z,44.60
2022-10-19T10:45:44.133Z,44.38
2022-10-19T10:48:25.248Z,44.56
2022-10-19T10:50:55.615Z,44.71
2022-10-19T10:53:36.753Z,45.97
2022-10-19T10:56:24.558Z,45.95
2022-10-19T10:59:00.494Z,45.77
2022-10-19T11:01:36.165Z,46.26
2022-10-19T11:04:11.543Z,46.73
2022-10-19T11:06:50.380Z,47.04
2022-10-19T11:09:27.391Z,46.94
2022-10-19T11:12:02.889Z,47.06
2022-10-19T11:14:39.748Z,46.97
2022-10-19T11:17:27.049Z,46.62
2022-10-19T11:20:01.550Z,47.30
2022-10-19T11:22:38.543Z,47.42
2022-10-19T11:25:32.420Z,47.73
2022-10-19T11:28:19.780Z,48.00
2022-10-19T11:31:13.646Z,48.30
2022-10-19T11:33:57.534Z,48.53
2022-10-19T11:36:48.791Z,48.31
2022-10-19T11:39:42.228Z,47.90
2022-10-19T11:42:21.865Z,48.03
2022-10-19T11:45:05.109Z,48.71
2022-10-19T11:47:59.731Z,48.24
2022-10-19T11:50:44.166Z,48.02
2022-10-19T11:53:27.166Z,49.48
2022-10-19T11:56:06.954Z,49.76
2022-10-19T11:58:47.061Z,50.38
2022-10-19T12:01:31.588Z,49.26
2022-10-19T12:04:48.286Z,48.53
2022-10-19T12:07:42.857Z,47.28
2022-10-19T12:10:26.114Z,47.19
2022-10-19T12:12:59.764Z,46.64
2022-10-19T12:15:33.641Z,46.10
2022-10-19T12:18:14.762Z,46.22
2022-10-19T12:20:50.457Z,45.95
2022-10-19T12:23:29.589Z,44.41
2022-10-19T12:26:02.851Z,44.01
2022-10-19T12:28:35.388Z,44.81
2022-10-19T12:31:12.273Z,45.07
2022-10-19T12:33:52.045Z,44.46
2022-10-19T12:36:39.661Z,45.00
2022-10-19T12:39:18.808Z,45.28
2022-10-19T12:41:56.319Z,45.27
2022-10-19T12:44:44.009Z,45.08
2022-10-19T12:47:19.981Z,44.50
2022-10-19T12:49:55.258Z,43.76
2022-10-19T12:52:52.379Z,44.03
2022-10-19T12:55:35.063Z,44.06
2022-10-19T12:58:08.041Z,42.61
2022-10-19T13:00:40.608Z,42.34
2022-10-19T13:03:18.507Z,42.00
2022-10-19T13:05:59.450Z,40.34
2022-10-19T13:08:33.412Z,40.17
2022-10-19T13:11:09.605Z,40.93
2022-10-19T13:14:02.300Z,40.45
2022-10-19T13:16:43.756Z,40.65
2022-10-19T13:19:24.298Z,39.70
2022-10-19T13:22:27.293Z,39.94
2022-10-19T13:25:23.733Z,39.77
2022-10-19T13:27:54.757Z,40.03
2022-10-19T13:31:03.270Z,39.49
2022-10-19T13:33:47.103Z,39.54
2022-10-19T13:36:17.642Z,39.58
2022-10-19T13:38:49.501Z,38.87
2022-10-19T13:41:25.940Z,37.14
2022-10-19T13:44:06.875Z,37.20
2022-10-19T13:47:06.755Z,38.04
2022-10-19T13:49:52.052Z,37.56
2022-10-19T13:52:51.209Z,38.29
2022-10-19T13:55:48.978Z,37.27
2022-10-19T13:58:51.692Z,37.04
2022-10-19T14:01:36.173Z,36.80
2022-10-19T14:04:29.547Z,37.50
2022-10-19T14:07:08.298Z,36.70
2022-10-19T14:09:58.178Z,36.60
2022-10-19T14:12:30.600Z,37.42
2022-10-19T14:15:00.638Z,37.08
2022-10-19T14:17:35.464Z,36.17
2022-10-19T14:20:25.772Z,37.25
2022-10-19T14:22:58.907Z,37.52
2022-10-19T14:25:31.974Z,37.61
2022-10-19T14:28:05.074Z,37.68
2022-10-19T14:30:38.445Z,37.50
2022-10-19T14:33:11.965Z,37.68
2022-10-19T14:35:45.091Z,37.96
2022-10-19T14:38:23.225Z,38.22
2022-10-19T14:40:53.312Z,38.32
2022-10-19T14:43:26.025Z,38.24
2022-10-19T14:46:14.690Z,37.70
2022-10-19T14:48:48.677Z,38.76
2022-10-19T14:51:21.882Z,39.23
2022-10-19T14:53:58.009Z,38.75
2022-10-19T14:56:32.082Z,38.52
2022-10-19T14:59:05.200Z,39.22
2022-10-19T15:01:35.659Z,39.30
2022-10-19T15:04:06.581Z,39.35
2022-10-19T15:06:42.543Z,37.75
2022-10-19T15:09:37.680Z,37.01
2022-10-19T15:12:19.602Z,37.22
2022-10-19T15:14:50.950Z,37.31
2022-10-19T15:17:27.640Z,37.01
2022-10-19T15:20:01.385Z,37.21
2022-10-19T15:22:43.265Z,37.44
2022-10-19T15:25:29.590Z,37.43
2022-10-19T15:27:59.671Z,36.85
2022-10-19T15:30:34.370Z,37.25
2022-10-19T15:33:18.126Z,37.60
2022-10-19T15:35:49.503Z,37.35
2022-10-19T15:38:25.990Z,38.29
2022-10-19T15:41:03.650Z,38.50
2022-10-19T15:43:48.840Z,39.04
2022-10-19T15:46:28.511Z,40.02
2022-10-19T15:49:04.532Z,40.07
2022-10-19T15:51:46.408Z,41.20
2022-10-19T15:54:19.183Z,40.52
2022-10-19T15:56:56.552Z,40.99
2022-10-19T15:59:26.693Z,41.19
2022-10-19T16:01:56.742Z,40.87
2022-10-19T16:04:26.917Z,40.88
2022-10-19T16:06:57.211Z,40.53
2022-10-19T16:09:27.377Z,41.02
2022-10-19T16:12:00.158Z,41.22
2022-10-19T16:14:33.040Z,41.14
2022-10-19T16:17:05.993Z,41.41
2022-10-19T16:19:37.635Z,41.21
2022-10-19T16:22:07.993Z,41.21
2022-10-19T16:24:38.454Z,41.35
2022-10-19T16:27:15.214Z,41.35
2022-10-19T16:29:46.097Z,41.61
2022-10-19T16:32:16.959Z,41.99
2022-10-19T16:34:47.478Z,42.82
2022-10-19T16:37:18.082Z,44.17
2022-10-19T16:39:49.852Z,44.46
2022-10-19T16:42:24.625Z,45.50
2022-10-19T16:44:57.078Z,50.12
2022-10-19T16:47:27.350Z,50.12
2022-10-19T16:50:03.257Z,51.22
2022-10-19T16:52:34.623Z,54.03
2022-10-19T16:55:06.619Z,55.96
2022-10-19T16:57:40.151Z,57.72
2022-10-19T17:00:11.504Z,57.12
2022-10-19T17:02:45.746Z,56.90
2022-10-19T17:05:16.947Z,57.99
2022-10-19T17:07:47.346Z,59.14
2022-10-19T17:10:20.599Z,59.42
2022-10-19T17:12:53.487Z,60.42
2022-10-19T17:15:42.147Z,61.39
2022-10-19T17:18:13.220Z,61.12
2022-10-19T17:20:43.571Z,61.35
2022-10-19T17:23:17.086Z,62.21
2022-10-19T17:25:51.185Z,62.45
2022-10-19T17:28:27.843Z,62.83
2022-10-19T17:30:58.922Z,63.88
2022-10-19T17:33:30.155Z,64.03
2022-10-19T17:36:07.138Z,63.52
2022-10-19T17:38:37.855Z,63.69
2022-10-19T17:41:10.377Z,61.46
2022-10-19T17:43:46.077Z,60.19
2022-10-19T17:46:23.043Z,59.13
2022-10-19T17:48:53.475Z,57.68
2022-10-19T17:51:27.215Z,56.36
2022-10-19T17:54:01.786Z,55.97
2022-10-19T17:56:33.082Z,55.16
2022-10-19T17:59:09.008Z,55.38
2022-10-19T18:01:40.037Z,53.97
2022-10-19T18:04:10.269Z,54.13
2022-10-19T18:06:41.468Z,52.65
2022-10-19T18:09:13.770Z,52.06
2022-10-19T18:11:46.027Z,51.00
2022-10-19T18:14:19.363Z,50.17
2022-10-19T18:16:50.448Z,50.31
2022-10-19T18:19:21.353Z,49.80
2022-10-19T18:21:53.554Z,49.14
2022-10-19T18:24:24.035Z,49.00
2022-10-19T18:26:55.447Z,48.58
2022-10-19T18:29:29.252Z,48.73
2022-10-19T18:32:01.698Z,48.65
2022-10-19T18:34:32.936Z,48.75
2022-10-19T18:37:03.307Z,48.56
2022-10-19T18:39:33.938Z,48.34
2022-10-19T18:42:05.170Z,48.74
2022-10-19T18:44:38.126Z,49.06
2022-10-19T18:47:09.174Z,48.29
2022-10-19T18:49:40.074Z,48.85
2022-10-19T18:52:10.585Z,49.34
2022-10-19T18:54:41.306Z,50.02
2022-10-19T18:57:14.681Z,50.63
2022-10-19T18:59:53.198Z,51.00
2022-10-19T19:02:34.635Z,51.49
2022-10-19T19:05:09.262Z,51.83
2022-10-19T19:07:40.108Z,51.92
2022-10-19T19:10:10.980Z,52.67
2022-10-19T19:12:41.812Z,53.43
2022-10-19T19:15:15.381Z,53.64
2022-10-19T19:17:46.415Z,54.09
2022-10-19T19:20:19.915Z,54.37
2022-10-19T19:22:52.579Z,54.38
2022-10-19T19:25:23.101Z,54.80
2022-10-19T19:27:53.414Z,54.90
2022-10-19T19:30:27.989Z,54.98
2022-10-19T19:32:58.564Z,54.96
2022-10-19T19:35:28.913Z,55.27
2022-10-19T19:37:59.173Z,55.50
2022-10-19T19:40:30.226Z,55.86
2022-10-19T19:43:01.507Z,55.71
2022-10-19T19:45:34.536Z,55.90
2022-10-19T19:48:07.693Z,55.77
2022-10-19T19:50:40.391Z,55.98
2022-10-19T19:53:10.817Z,56.25
2022-10-19T19:55:41.524Z,56.25
2022-10-19T19:58:12.818Z,56.67
2022-10-19T20:00:46.239Z,57.01
2022-10-19T20:03:16.525Z,57.08
2022-10-19T20:05:47.490Z,56.90
2022-10-19T20:08:21.040Z,57.63
2022-10-19T20:10:54.549Z,57.63
2022-10-19T20:13:25.232Z,57.75
2022-10-19T20:16:02.634Z,57.93
2022-10-19T20:18:33.417Z,58.10
2022-10-19T20:21:04.275Z,58.01
2022-10-19T20:23:35.396Z,58.24
2022-10-19T20:26:09.152Z,58.99
2022-10-19T20:28:39.412Z,58.47
2022-10-19T20:31:13.768Z,58.66
2022-10-19T20:33:47.403Z,58.29
2022-10-19T20:36:20.052Z,58.87
2022-10-19T20:38:55.694Z,58.80
2022-10-19T20:41:27.620Z,58.67
2022-10-19T20:44:00.130Z,58.33
2022-10-19T20:46:33.473Z,58.36
2022-10-19T20:49:04.880Z,58.36
2022-10-19T20:51:36.933Z,57.31
2022-10-19T20:54:09.714Z,54.63
2022-10-19T20:56:41.801Z,53.56
2022-10-19T20:59:16.813Z,53.45
2022-10-19T21:01:54.384Z,52.48
2022-10-19T21:04:25.010Z,52.13
2022-10-19T21:06:55.877Z,51.35
2022-10-19T21:09:26.732Z,50.83
2022-10-19T21:11:56.743Z,50.89
2022-10-19T21:14:29.110Z,50.67
2022-10-19T21:17:02.792Z,50.66
2022-10-19T21:19:34.442Z,51.31
2022-10-19T21:22:06.356Z,51.16
2022-10-19T21:24:39.588Z,51.98
2022-10-19T21:27:11.880Z,53.11
2022-10-19T21:29:44.358Z,54.08
2022-10-19T21:32:18.432Z,54.62
2022-10-19T21:34:48.471Z,54.99
2022-10-19T21:37:18.446Z,55.80
2022-10-19T21:39:53.341Z,55.73
2022-10-19T21:42:23.317Z,56.75
2022-10-19T21:44:57.221Z,56.70
2022-10-19T21:47:34.271Z,57.07
2022-10-19T21:50:05.727Z,56.17
2022-10-19T21:52:35.846Z,56.01
2022-10-19T21:55:06.025Z,55.96
2022-10-19T21:57:36.367Z,55.62
2022-10-19T22:00:10.703Z,55.86
2022-10-19T22:02:43.339Z,56.25
2022-10-19T22:05:13.355Z,56.80
2022-10-19T22:07:43.398Z,56.20
2022-10-19T22:10:14.225Z,56.25
2022-10-19T22:12:44.197Z,55.88
2022-10-19T22:15:14.652Z,54.58
2022-10-19T22:17:47.262Z,54.71
2022-10-19T22:20:18.314Z,54.65
2022-10-19T22:22:50.316Z,55.38
2022-10-19T22:25:22.844Z,55.85
2022-10-19T22:27:52.935Z,56.41
2022-10-19T22:30:24.299Z,56.52
2022-10-19T22:32:56.964Z,56.30
2022-10-19T22:35:26.970Z,56.19
2022-10-19T22:37:57.097Z,56.28
2022-10-19T22:40:27.093Z,55.91
2022-10-19T22:43:04.915Z,55.96
2022-10-19T22:45:36.913Z,55.60
2022-10-19T22:48:09.910Z,55.82
2022-10-19T22:50:40.139Z,55.65
2022-10-19T22:53:10.242Z,55.42
2022-10-19T22:55:40.808Z,55.45
2022-10-19T23:01:04.219Z,55.24
2022-10-19T23:03:39.398Z,55.75
2022-10-19T23:06:10.259Z,56.35
2022-10-19T23:08:43.139Z,56.27
2022-10-19T23:11:13.670Z,57.11
2022-10-19T23:13:43.877Z,57.39
2022-10-19T23:16:15.065Z,58.21
2022-10-19T23:18:47.827Z,58.01
2022-10-19T23:21:18.439Z,58.20
2022-10-19T23:23:48.586Z,58.38
2022-10-19T23:26:20.794Z,58.91
2022-10-19T23:28:52.743Z,58.76
2022-10-19T23:31:26.191Z,59.49
2022-10-19T23:33:59.285Z,59.86
2022-10-19T23:36:31.162Z,60.68
2022-10-19T23:39:01.482Z,60.94
2022-10-19T23:41:31.519Z,61.51
2022-10-19T23:44:01.519Z,62.19
2022-10-19T23:46:31.491Z,62.15
2022-10-19T23:49:04.141Z,62.38
2022-10-19T23:51:34.123Z,62.00
2022-10-19T23:54:04.258Z,62.36
2022-10-19T23:56:34.258Z,62.25
2022-10-19T23:59:07.367Z,62.57
